Disclaimer

Please do not use the information listed here in-flight or in-navigation, as they are not provided to us by the airports but are provided by volunteers, so they might be outdated.

Search


Regions


Airport information page

No radio frequency information is available.

Airport informations:
Latitude: 11° 46' 59.93" N
Longitude: 078° 03' 56.18" E
Elevation: 1008 feet - 307 meters
Operating hours: N/A
Operating agency: Civil government, landing fees and diplomatic clearance may be required
Timezone: UTC+5:30
Fuel: N/A

Runway information:
04/22 - 5925 x 150 feet< - >1806 x 46 meters

Recent METARs:
VOSM 180800Z 09004KT 5000 BR SCT018 SCT025 31/22 Q1012 NOSIG
VOSM 180900Z 08004KT 6000 SCT018 SCT025 BKN080 31/23 Q1010 NOSIG
VOSM 180900Z 08004KT 6000 SCT018 SCT025 BKN080 31/23 Q1010 NOSIG

Airport on the map: